Time;durP1;ratioP1;P1;durP2;ratioP2;P2;SDS_P1;SDS_P2;PMS_P1;PMS_P2;Temp;Humidity;BMP_temperature;BMP_pressure;BME280_temperature;BME280_humidity;BME280_pressure;Samples;Min_cycle;Max_cycle;Signal;HPM_P1;HPM_P2
2023/04/16 00:01:38;;;;;;;1.23;0.98;;;;;;;6.55;45.09;91982.81;5111242;28;20114;-77
2023/04/16 00:04:04;;;;;;;2.05;0.88;;;;;;;6.56;45.31;91984.38;5111533;28;20019;-77
2023/04/16 00:06:30;;;;;;;2.05;0.70;;;;;;;6.55;45.13;91985.41;5111117;28;20050;-77
2023/04/16 00:08:56;;;;;;;1.20;0.80;;;;;;;6.60;44.89;91985.38;5094100;28;20035;-77
2023/04/16 00:11:22;;;;;;;0.90;0.80;;;;;;;6.57;45.03;91981.47;5111950;28;20028;-77
2023/04/16 00:13:48;;;;;;;1.35;0.77;;;;;;;6.59;45.57;91987.19;5092991;28;20031;-77
2023/04/16 00:16:14;;;;;;;0.70;0.70;;;;;;;6.58;45.09;91977.06;5111244;28;20520;-77
2023/04/16 00:18:40;;;;;;;1.25;0.70;;;;;;;6.57;45.39;91973.69;5112133;28;20043;-77
2023/04/16 00:21:06;;;;;;;0.60;0.60;;;;;;;6.55;45.73;91972.41;5094147;28;20043;-77
2023/04/16 00:23:32;;;;;;;1.40;0.80;;;;;;;6.52;46.32;91978.94;5112045;28;20039;-77
2023/04/16 00:25:58;;;;;;;0.80;0.70;;;;;;;6.47;46.42;91974.56;5092215;28;20562;-77
2023/04/16 00:28:26;;;;;;;0.65;0.63;;;;;;;6.47;47.16;91976.38;5111900;28;20026;-77
2023/04/16 00:30:52;;;;;;;1.13;0.80;;;;;;;6.37;47.14;91972.03;5094029;28;20043;-77
2023/04/16 00:33:18;;;;;;;1.08;0.80;;;;;;;6.32;47.24;91972.06;5111740;28;20427;-77
2023/04/16 00:35:50;;;;;;;1.15;0.77;;;;;;;6.28;47.63;91976.25;5110769;28;20030;-77
2023/04/16 00:38:16;;;;;;;1.00;0.90;;;;;;;6.21;47.59;91966.19;5093338;28;20047;-77
2023/04/16 00:40:42;;;;;;;0.80;0.80;;;;;;;6.19;47.25;91972.69;5098020;28;20028;-77
2023/04/16 00:43:07;;;;;;;0.70;0.70;;;;;;;6.16;47.71;91970.63;5116239;28;20397;-77
2023/04/16 00:45:33;;;;;;;1.02;0.77;;;;;;;6.15;47.70;91969.09;5115135;28;20051;-77
2023/04/16 00:48:00;;;;;;;1.00;0.80;;;;;;;6.12;47.92;91967.03;5115453;28;20062;-77
2023/04/16 00:50:25;;;;;;;0.57;0.55;;;;;;;6.11;47.62;91965.47;5098049;28;20039;-77
2023/04/16 00:52:51;;;;;;;0.60;0.60;;;;;;;6.07;48.11;91964.47;5115875;28;20494;-77
2023/04/16 00:55:17;;;;;;;0.70;0.70;;;;;;;6.05;48.03;91970.69;5096447;28;20051;-76
2023/04/16 00:57:44;;;;;;;0.93;0.73;;;;;;;6.04;48.46;91974.34;5097311;28;20071;-76
2023/04/16 01:00:10;;;;;;;0.68;0.68;;;;;;;6.00;48.33;91968.13;5115103;28;20102;-77
2023/04/16 01:02:36;;;;;;;0.70;0.65;;;;;;;5.99;47.91;91965.78;5080515;28;20024;-77
2023/04/16 01:05:04;;;;;;;1.45;0.82;;;;;;;5.99;47.86;91963.19;5096965;27;20059;-77
2023/04/16 01:07:30;;;;;;;0.70;0.70;;;;;;;6.01;47.52;91961.91;5114348;28;20036;-77
2023/04/16 01:09:56;;;;;;;0.88;0.70;;;;;;;6.00;47.94;91962.94;5097511;28;20046;-76
2023/04/16 01:12:22;;;;;;;1.13;0.80;;;;;;;6.00;47.99;91962.94;5097656;28;20497;-77
2023/04/16 01:14:48;;;;;;;1.10;0.77;;;;;;;5.99;49.18;91960.59;5114411;28;20040;-77
2023/04/16 01:17:14;;;;;;;0.55;0.55;;;;;;;5.90;49.87;91952.59;5095461;28;20035;-76
2023/04/16 01:19:39;;;;;;;1.42;0.80;;;;;;;5.87;49.09;91955.72;5097229;28;20027;-77
2023/04/16 01:22:06;;;;;;;0.60;0.60;;;;;;;5.89;48.71;91961.41;5096620;28;20367;-77
2023/04/16 01:24:34;;;;;;;0.77;0.65;;;;;;;5.86;48.87;91956.78;5114815;28;20087;-77
2023/04/16 01:26:59;;;;;;;0.70;0.70;;;;;;;5.85;48.63;91950.00;5061863;28;20156;-76
2023/04/16 01:29:25;;;;;;;1.67;0.70;;;;;;;5.87;49.35;91958.31;5113308;28;20508;-76
2023/04/16 01:31:53;;;;;;;1.67;0.80;;;;;;;5.86;48.75;91958.59;5079364;28;20039;-76
2023/04/16 01:34:25;;;;;;;0.60;0.60;;;;;;;5.85;48.83;91950.00;5096067;28;20452;-76
2023/04/16 01:36:51;;;;;;;0.65;0.65;;;;;;;5.81;48.91;91947.19;5095517;28;20031;-77
2023/04/16 01:39:18;;;;;;;0.75;0.75;;;;;;;5.77;48.60;91946.19;5096061;28;20076;-76
2023/04/16 01:41:43;;;;;;;0.80;0.60;;;;;;;5.78;48.58;91944.34;5096033;28;20032;-76
2023/04/16 01:44:09;;;;;;;1.92;0.70;;;;;;;5.74;48.62;91951.91;5095537;28;20031;-76
2023/04/16 01:46:36;;;;;;;4.07;0.65;;;;;;;5.71;48.57;91943.88;5114481;28;20085;-76
2023/04/16 01:49:03;;;;;;;0.65;0.65;;;;;;;5.74;48.30;91951.13;5113725;28;20031;-76
2023/04/16 01:51:29;;;;;;;0.77;0.60;;;;;;;5.71;48.23;91949.84;5113341;28;20393;-76
2023/04/16 01:53:57;;;;;;;0.60;0.60;;;;;;;5.71;48.47;91946.47;5076186;28;20040;-76
2023/04/16 01:56:23;;;;;;;0.60;0.60;;;;;;;5.70;48.71;91952.72;5092361;28;20093;-76
2023/04/16 01:58:49;;;;;;;0.70;0.70;;;;;;;5.66;48.55;91943.91;5113245;28;20427;-76
2023/04/16 02:01:16;;;;;;;0.60;0.60;;;;;;;5.63;48.39;91948.59;5096428;28;20036;-77
2023/04/16 02:03:43;;;;;;;0.75;0.68;;;;;;;5.63;48.27;91943.41;5079738;28;20024;-76
2023/04/16 02:06:09;;;;;;;1.58;0.70;;;;;;;5.62;48.09;91946.25;5095848;28;20096;-76
2023/04/16 02:08:35;;;;;;;0.50;0.50;;;;;;;5.61;47.97;91940.28;5113960;28;20046;-77
2023/04/16 02:11:01;;;;;;;0.60;0.50;;;;;;;5.58;47.92;91938.25;5114553;28;20040;-76
2023/04/16 02:13:27;;;;;;;1.17;0.90;;;;;;;5.58;48.45;91935.66;5059677;28;20315;-76
2023/04/16 02:15:52;;;;;;;0.80;0.80;;;;;;;5.57;48.77;91939.28;5071405;28;20078;-77
2023/04/16 02:18:27;;;;;;;0.50;0.50;;;;;;;5.55;48.29;91938.75;5069662;28;20497;-75
2023/04/16 02:20:53;;;;;;;0.80;0.80;;;;;;;5.54;48.22;91939.81;5055391;28;20041;-77
2023/04/16 02:23:19;;;;;;;0.80;0.70;;;;;;;5.56;48.53;91939.53;5072199;28;20124;-77
2023/04/16 02:25:46;;;;;;;0.77;0.70;;;;;;;5.55;47.97;91938.00;5073667;28;20549;-77
2023/04/16 02:28:14;;;;;;;1.00;0.70;;;;;;;5.52;48.46;91935.94;5072110;28;20225;-77
2023/04/16 02:30:41;;;;;;;0.60;0.60;;;;;;;5.49;48.85;91932.03;5063741;28;20127;-77
2023/04/16 02:33:09;;;;;;;0.68;0.68;;;;;;;5.48;48.88;91930.50;5072320;28;20028;-77
2023/04/16 02:35:40;;;;;;;1.17;0.73;;;;;;;5.44;48.97;91932.06;5072144;28;20035;-77
2023/04/16 02:38:06;;;;;;;0.85;0.80;;;;;;;5.40;49.12;91928.47;5071459;28;20052;-77
2023/04/16 02:40:33;;;;;;;0.65;0.60;;;;;;;5.39;49.78;91938.06;5063787;28;20120;-77
2023/04/16 02:43:00;;;;;;;0.55;0.55;;;;;;;5.37;49.88;91940.16;5057868;28;20103;-77
2023/04/16 02:45:26;;;;;;;0.90;0.70;;;;;;;5.33;49.74;91935.75;5071439;28;20509;-77
2023/04/16 02:47:52;;;;;;;0.60;0.60;;;;;;;5.30;49.81;91938.91;5072576;28;20448;-77
2023/04/16 02:50:19;;;;;;;0.73;0.70;;;;;;;5.23;50.49;91928.81;5071111;28;20032;-77
2023/04/16 02:52:44;;;;;;;1.95;0.70;;;;;;;5.22;50.19;91929.84;5069920;28;20028;-77
2023/04/16 02:55:10;;;;;;;0.50;0.50;;;;;;;5.22;51.04;91930.63;5071063;28;20223;-77
2023/04/16 02:57:36;;;;;;;0.70;0.70;;;;;;;5.19;50.71;91925.97;5071721;28;20036;-76
2023/04/16 03:00:03;;;;;;;0.75;0.70;;;;;;;5.15;50.13;91927.53;5071433;28;20398;-76
2023/04/16 03:02:29;;;;;;;0.60;0.60;;;;;;;5.20;50.06;91932.72;5070727;28;20063;-76
2023/04/16 03:04:55;;;;;;;0.85;0.63;;;;;;;5.17;50.60;91920.25;5071485;28;20486;-76
2023/04/16 03:07:20;;;;;;;0.60;0.60;;;;;;;5.14;50.77;91928.59;5071840;28;20174;-76
2023/04/16 03:09:48;;;;;;;0.82;0.77;;;;;;;5.12;50.99;91927.28;5055104;28;20478;-76
2023/04/16 03:12:14;;;;;;;1.33;0.63;;;;;;;5.11;50.77;91933.50;5071951;28;20135;-77
2023/04/16 03:14:40;;;;;;;0.90;0.70;;;;;;;5.11;50.58;91936.09;5088886;28;20170;-77
2023/04/16 03:17:05;;;;;;;1.20;0.90;;;;;;;5.08;51.04;91934.81;5092043;28;20167;-76
2023/04/16 03:19:31;;;;;;;1.23;0.82;;;;;;;5.06;50.50;91934.31;5073670;28;20524;-76
2023/04/16 03:21:57;;;;;;;0.63;0.63;;;;;;;5.06;50.17;91939.50;5091679;28;20043;-76
2023/04/16 03:24:25;;;;;;;0.57;0.57;;;;;;;5.06;50.52;91934.31;5056934;28;20043;-77
2023/04/16 03:26:50;;;;;;;1.13;0.60;;;;;;;5.04;50.17;91935.63;5058455;28;20050;-75
2023/04/16 03:29:16;;;;;;;0.95;0.70;;;;;;;5.02;50.89;91928.09;5074101;28;20115;-77
2023/04/16 03:31:42;;;;;;;1.45;0.90;;;;;;;5.01;51.00;91939.53;5057188;28;20394;-77
2023/04/16 03:34:08;;;;;;;4.70;0.75;;;;;;;4.99;51.55;91936.41;5073793;28;20039;-77
2023/04/16 03:36:34;;;;;;;0.77;0.68;;;;;;;4.96;51.24;91936.94;5073977;28;20555;-77
2023/04/16 03:39:00;;;;;;;0.68;0.60;;;;;;;4.96;51.15;91936.94;5074366;28;20027;-77
2023/04/16 03:41:26;;;;;;;1.35;0.70;;;;;;;4.95;51.09;91940.56;5074210;28;20097;-77
2023/04/16 03:43:52;;;;;;;0.50;0.50;;;;;;;4.94;51.40;91941.63;5073187;28;20474;-77
2023/04/16 03:46:17;;;;;;;0.70;0.60;;;;;;;4.95;51.15;91940.56;5073541;28;20036;-77
2023/04/16 03:48:44;;;;;;;0.85;0.60;;;;;;;4.94;51.91;91942.41;5073780;28;20047;-77
2023/04/16 03:51:11;;;;;;;0.90;0.90;;;;;;;4.91;52.64;91945.53;5073940;28;20060;-77
2023/04/16 03:53:37;;;;;;;0.88;0.50;;;;;;;4.90;52.43;91938.00;5052606;28;20036;-77
2023/04/16 03:56:03;;;;;;;0.55;0.52;;;;;;;4.85;52.43;91943.22;5059598;28;20051;-77
2023/04/16 03:58:30;;;;;;;0.70;0.70;;;;;;;4.86;53.21;91939.56;5068595;28;20024;-77
2023/04/16 04:00:56;;;;;;;0.60;0.60;;;;;;;4.80;53.65;91937.00;5073668;28;20413;-77
2023/04/16 04:03:24;;;;;;;0.57;0.57;;;;;;;4.77;54.16;91942.72;5055803;28;20130;-77
2023/04/16 04:05:52;;;;;;;0.50;0.50;;;;;;;4.82;53.50;91946.31;5066845;28;20497;-77
2023/04/16 04:08:24;;;;;;;1.03;0.70;;;;;;;4.81;53.37;91942.94;5073504;28;20027;-77
2023/04/16 04:10:50;;;;;;;1.00;0.80;;;;;;;4.78;53.86;91939.06;5073569;28;20510;-77
2023/04/16 04:13:18;;;;;;;0.75;0.65;;;;;;;4.77;54.24;91947.91;5056583;28;20104;-77
2023/04/16 04:15:44;;;;;;;1.15;0.70;;;;;;;4.76;54.41;91946.34;5058376;28;20040;-77
2023/04/16 04:18:09;;;;;;;0.60;0.60;;;;;;;4.73;54.16;91940.91;5083171;28;20458;-77
2023/04/16 04:20:40;;;;;;;1.67;0.63;;;;;;;4.73;54.02;91946.09;5073431;28;20050;-77
2023/04/16 04:23:06;;;;;;;0.60;0.60;;;;;;;4.75;54.22;91952.56;5056505;28;20406;-77
2023/04/16 04:25:32;;;;;;;0.60;0.60;;;;;;;4.74;53.86;91956.19;5073490;28;20115;-77
2023/04/16 04:27:58;;;;;;;0.63;0.63;;;;;;;4.76;53.98;91961.91;5072789;28;20032;-77
2023/04/16 04:30:24;;;;;;;0.68;0.68;;;;;;;4.79;53.37;91963.94;5073177;28;20035;-77
2023/04/16 04:32:53;;;;;;;0.82;0.50;;;;;;;4.79;53.44;91963.94;5091316;28;20032;-77
2023/04/16 04:35:20;;;;;;;0.70;0.70;;;;;;;4.78;53.33;91964.22;5071965;28;20402;-77
2023/04/16 04:37:46;;;;;;;1.05;0.70;;;;;;;4.79;54.36;91960.59;5056784;28;20344;-77
2023/04/16 04:40:16;;;;;;;0.60;0.60;;;;;;;4.77;53.84;91958.28;5072188;28;20126;-77
2023/04/16 04:42:44;;;;;;;0.73;0.60;;;;;;;4.82;53.14;91972.25;5072927;28;20122;-77
2023/04/16 04:45:10;;;;;;;0.50;0.50;;;;;;;4.84;52.91;91967.56;5072970;28;20032;-77
2023/04/16 04:47:36;;;;;;;0.88;0.55;;;;;;;4.87;52.48;91967.84;5056348;28;20068;-77
2023/04/16 04:50:01;;;;;;;0.63;0.50;;;;;;;4.90;52.84;91967.31;5072552;28;20128;-77
2023/04/16 04:52:28;;;;;;;0.68;0.52;;;;;;;4.91;52.90;91968.06;5073119;28;20032;-77
2023/04/16 04:54:54;;;;;;;0.50;0.50;;;;;;;4.89;53.14;91976.13;5065205;28;20087;-77
2023/04/16 04:57:19;;;;;;;0.45;0.45;;;;;;;4.90;52.86;91972.50;5055839;28;20044;-77
2023/04/16 04:59:45;;;;;;;0.40;0.40;;;;;;;4.91;53.51;91983.63;5073297;28;20040;-79
2023/04/16 05:02:12;;;;;;;0.75;0.50;;;;;;;4.92;53.68;91974.84;5072909;28;20036;-79
2023/04/16 05:04:43;;;;;;;1.10;0.52;;;;;;;4.93;54.15;91982.34;5072418;28;20039;-79
2023/04/16 05:07:09;;;;;;;1.02;0.80;;;;;;;4.98;53.75;91978.97;5077354;28;20071;-79
2023/04/16 05:09:38;;;;;;;0.75;0.70;;;;;;;5.01;54.85;91984.41;5061011;28;20103;-79
2023/04/16 05:12:06;;;;;;;0.50;0.50;;;;;;;5.07;54.87;91982.56;5094983;28;20114;-79
2023/04/16 05:14:32;;;;;;;0.65;0.65;;;;;;;5.14;54.10;91982.31;5095576;28;20063;-79
2023/04/16 05:16:58;;;;;;;0.50;0.50;;;;;;;5.20;53.84;91981.22;5078000;28;20246;-79
2023/04/16 05:19:23;;;;;;;0.68;0.68;;;;;;;5.28;53.55;91982.50;5078046;28;20043;-79
2023/04/16 05:21:50;;;;;;;1.20;0.60;;;;;;;5.39;53.48;91986.63;5056869;28;20038;-79
2023/04/16 05:24:16;;;;;;;0.77;0.77;;;;;;;5.45;53.79;91992.56;5091374;28;20036;-79
2023/04/16 05:26:41;;;;;;;0.68;0.68;;;;;;;5.56;53.41;91988.88;5079818;28;20043;-78
2023/04/16 05:29:07;;;;;;;0.57;0.50;;;;;;;5.68;52.69;91991.16;5056605;28;20478;-78
2023/04/16 05:31:32;;;;;;;1.23;0.70;;;;;;;5.81;53.11;91993.19;5075321;28;20047;-78
2023/04/16 05:33:58;;;;;;;0.63;0.60;;;;;;;5.96;52.65;91998.28;5096480;28;20043;-78
2023/04/16 05:36:24;;;;;;;1.35;0.70;;;;;;;6.09;52.33;91996.16;5096320;28;20749;-78
2023/04/16 05:38:49;;;;;;;0.40;0.40;;;;;;;6.22;52.50;91995.56;5095181;28;20040;-78
2023/04/16 05:41:15;;;;;;;0.63;0.60;;;;;;;6.36;52.33;91991.28;5096743;28;20055;-78
2023/04/16 05:43:40;;;;;;;0.80;0.80;;;;;;;6.54;51.76;91997.63;5061289;28;20028;-79
2023/04/16 05:46:06;;;;;;;0.50;0.50;;;;;;;6.70;52.00;92000.88;5070440;28;20035;-78
2023/04/16 05:48:32;;;;;;;0.50;0.50;;;;;;;6.87;51.42;92016.09;5096596;28;20032;-79
2023/04/16 05:50:58;;;;;;;0.70;0.70;;;;;;;7.02;50.84;92004.75;5078019;28;20043;-78
2023/04/16 05:53:24;;;;;;;0.50;0.50;;;;;;;7.19;50.59;92007.72;5096583;28;20067;-79
2023/04/16 05:55:50;;;;;;;0.65;0.65;;;;;;;7.40;50.21;92013.47;5073297;28;20843;-78
2023/04/16 05:58:17;;;;;;;0.85;0.70;;;;;;;7.59;50.38;92016.13;5095454;28;20570;-78
2023/04/16 06:00:44;;;;;;;0.63;0.50;;;;;;;7.77;50.45;92016.44;5093098;28;20516;-78
2023/04/16 06:03:10;;;;;;;0.73;0.65;;;;;;;7.96;49.82;92013.84;5079107;28;20032;-83
2023/04/16 06:05:38;;;;;;;1.05;0.80;;;;;;;8.17;49.69;92015.13;5072795;28;20115;-77
2023/04/16 06:08:05;;;;;;;0.40;0.40;;;;;;;8.35;48.96;92000.53;5094248;28;20063;-78
2023/04/16 06:10:31;;;;;;;0.70;0.70;;;;;;;8.54;48.24;92009.13;5058339;28;20035;-80
2023/04/16 06:12:57;;;;;;;0.63;0.63;;;;;;;8.75;47.88;92014.81;5093373;28;20133;-79
2023/04/16 06:15:23;;;;;;;0.50;0.50;;;;;;;9.06;45.27;92021.38;5094944;28;20067;-77
2023/04/16 06:17:49;;;;;;;1.58;0.70;;;;;;;9.27;45.24;92014.72;5093344;28;20697;-75
2023/04/16 06:20:15;;;;;;;0.52;0.52;;;;;;;9.61;44.20;92013.56;5089953;28;20040;-75
2023/04/16 06:22:41;;;;;;;1.40;0.80;;;;;;;10.98;42.83;92016.13;5069176;28;20796;-77
2023/04/16 06:25:08;;;;;;;1.42;0.70;;;;;;;12.59;39.97;92018.31;5073864;28;20497;-76
2023/04/16 06:27:36;;;;;;;0.85;0.60;;;;;;;14.02;38.09;92022.59;5092569;28;20028;-77
2023/04/16 06:30:03;;;;;;;1.08;0.60;;;;;;;15.17;35.54;92017.72;5090899;28;20039;-78
2023/04/16 06:32:39;;;;;;;0.60;0.60;;;;;;;16.36;31.48;92011.66;5092017;28;20058;-76
2023/04/16 06:35:42;;;;;;;0.80;0.80;;;;;;;17.44;30.79;92018.03;5086472;28;20032;-76
2023/04/16 06:38:08;;;;;;;0.88;0.68;;;;;;;18.47;30.53;92018.94;5071457;28;20036;-77
2023/04/16 06:40:35;;;;;;;1.00;0.80;;;;;;;18.12;31.58;92015.50;5087964;28;20028;-75
2023/04/16 06:43:01;;;;;;;0.65;0.65;;;;;;;17.30;31.68;92004.44;5093138;28;20493;-75
2023/04/16 06:45:27;;;;;;;0.70;0.70;;;;;;;17.62;32.47;92020.34;5080455;28;20029;-75
2023/04/16 06:47:52;;;;;;;1.30;0.63;;;;;;;17.96;30.64;92026.88;5072424;28;20029;-77
2023/04/16 06:50:18;;;;;;;0.57;0.57;;;;;;;18.59;29.67;92014.66;5072254;28;20154;-76
2023/04/16 06:52:44;;;;;;;0.30;0.30;;;;;;;18.75;28.30;92012.69;5092322;28;20034;-76
2023/04/16 06:55:10;;;;;;;1.02;0.60;;;;;;;18.28;28.40;92016.25;5072328;28;20397;-76
2023/04/16 06:57:35;;;;;;;1.15;0.70;;;;;;;17.36;31.40;92031.41;5053704;28;20166;-77
2023/04/16 07:00:03;;;;;;;0.57;0.57;;;;;;;16.49;33.11;92015.06;5086134;28;20525;-76
2023/04/16 07:02:29;;;;;;;1.48;0.85;;;;;;;16.18;31.93;92024.34;5090909;28;20478;-76
2023/04/16 07:04:55;;;;;;;0.60;0.60;;;;;;;15.59;33.34;92036.06;5069969;28;20048;-77
2023/04/16 07:07:21;;;;;;;1.45;0.57;;;;;;;15.13;32.80;92037.94;5067241;28;20135;-77
2023/04/16 07:09:46;;;;;;;0.50;0.50;;;;;;;14.91;32.24;92030.38;5068871;28;20042;-76
2023/04/16 07:12:12;;;;;;;0.57;0.50;;;;;;;14.73;33.59;92027.88;5091258;28;20047;-77
2023/04/16 07:14:38;;;;;;;0.57;0.57;;;;;;;14.57;34.94;92032.97;5090047;28;20044;-76
2023/04/16 07:17:03;;;;;;;0.95;0.80;;;;;;;14.38;35.40;92033.38;5090440;28;20036;-76
2023/04/16 07:19:31;;;;;;;0.70;0.70;;;;;;;14.12;35.21;92027.50;5090613;28;20154;-76
2023/04/16 07:21:58;;;;;;;0.50;0.50;;;;;;;13.76;34.79;92039.28;5070172;28;20044;-76
2023/04/16 07:24:23;;;;;;;0.85;0.68;;;;;;;13.81;34.88;92031.22;5077537;28;20050;-75
2023/04/16 07:26:49;;;;;;;1.25;0.70;;;;;;;13.60;34.35;92035.63;5063715;28;20044;-76
2023/04/16 07:29:14;;;;;;;1.40;0.80;;;;;;;13.47;35.98;92038.16;5064966;28;20036;-76
2023/04/16 07:31:40;;;;;;;0.80;0.80;;;;;;;13.38;35.39;92042.66;5080471;28;20036;-76
2023/04/16 07:34:06;;;;;;;0.40;0.40;;;;;;;13.64;33.80;92041.78;5087680;28;20044;-75
2023/04/16 07:36:32;;;;;;;0.60;0.60;;;;;;;13.72;35.31;92041.00;5067953;28;20032;-76
2023/04/16 07:38:57;;;;;;;0.68;0.68;;;;;;;13.63;36.00;92042.91;5068113;28;20036;-75
2023/04/16 07:41:23;;;;;;;1.10;0.68;;;;;;;14.07;35.93;92038.19;5091347;28;20028;-77
2023/04/16 07:43:52;;;;;;;1.20;0.65;;;;;;;14.40;34.56;92043.59;5072531;28;20405;-77
2023/04/16 07:46:25;;;;;;;0.60;0.60;;;;;;;14.38;35.90;92036.00;5091939;28;20063;-76
2023/04/16 07:48:51;;;;;;;0.43;0.43;;;;;;;14.22;34.15;92034.25;5064810;28;20036;-77
2023/04/16 07:51:22;;;;;;;1.00;0.73;;;;;;;13.64;37.88;92036.53;5083522;28;20064;-75
2023/04/16 07:53:48;;;;;;;0.70;0.70;;;;;;;13.53;36.73;92044.78;5091626;28;20557;-76
2023/04/16 07:56:13;;;;;;;0.50;0.50;;;;;;;13.47;33.58;92040.00;5085215;28;20115;-76
2023/04/16 07:58:42;;;;;;;0.82;0.63;;;;;;;13.67;37.80;92038.56;5073125;28;20466;-77
2023/04/16 08:01:12;;;;;;;0.50;0.50;;;;;;;13.60;35.55;92041.66;5084920;28;20149;-77
2023/04/16 08:03:38;;;;;;;0.55;0.50;;;;;;;13.13;33.51;92046.88;5089806;28;20118;-76
2023/04/16 08:06:03;;;;;;;0.50;0.50;;;;;;;13.66;36.22;92047.53;5073706;28;20131;-76
2023/04/16 08:08:30;;;;;;;0.55;0.55;;;;;;;13.94;36.22;92046.00;5091903;28;20028;-76
2023/04/16 08:10:56;;;;;;;0.65;0.50;;;;;;;14.05;33.08;92051.69;5062501;28;20044;-76
2023/04/16 08:13:24;;;;;;;0.55;0.55;;;;;;;13.90;31.77;92047.72;5083699;28;20055;-76
2023/04/16 08:15:50;;;;;;;0.40;0.40;;;;;;;13.88;32.17;92059.66;5090990;28;20032;-76
2023/04/16 08:18:15;;;;;;;0.60;0.60;;;;;;;13.74;33.00;92057.25;5088264;28;20044;-77
2023/04/16 08:20:42;;;;;;;0.45;0.45;;;;;;;14.04;32.71;92052.78;5090656;28;20240;-77
2023/04/16 08:23:07;;;;;;;1.65;1.15;;;;;;;14.14;34.41;92062.19;5055449;28;20509;-77
2023/04/16 08:25:33;;;;;;;1.27;0.98;;;;;;;13.80;36.27;92058.59;5069929;28;20032;-79
2023/04/16 08:27:58;;;;;;;1.38;0.75;;;;;;;13.72;34.25;92068.06;5066421;28;20100;-77
2023/04/16 08:30:24;;;;;;;0.80;0.80;;;;;;;13.95;39.02;92071.22;5083855;28;20036;-76
2023/04/16 08:32:50;;;;;;;0.70;0.65;;;;;;;14.48;34.90;92073.59;5058753;28;20401;-79
2023/04/16 08:35:16;;;;;;;0.50;0.50;;;;;;;14.33;34.44;92075.69;5083120;28;20124;-78
2023/04/16 08:37:41;;;;;;;0.50;0.50;;;;;;;14.30;35.46;92075.56;5069992;28;20056;-78
2023/04/16 08:40:07;;;;;;;0.50;0.50;;;;;;;14.13;34.08;92073.78;5094176;28;20065;-80
2023/04/16 08:42:45;;;;;;;0.70;0.70;;;;;;;13.84;38.31;92080.56;5095334;28;20094;-79
2023/04/16 08:45:18;;;;;;;0.85;0.82;;;;;;;13.94;37.31;92085.47;5095144;28;20028;-82
2023/04/16 08:47:50;;;;;;;0.55;0.55;;;;;;;14.53;33.47;92074.16;5097987;28;20039;-78
2023/04/16 08:50:22;;;;;;;0.52;0.50;;;;;;;14.92;33.73;92079.34;5094623;28;20031;-77
2023/04/16 08:52:52;;;;;;;0.90;0.85;;;;;;;15.26;37.56;92077.50;5093240;28;20024;-77
2023/04/16 08:55:25;;;;;;;1.70;0.70;;;;;;;15.14;34.63;92079.00;5091550;28;20133;-80
2023/04/16 08:57:57;;;;;;;0.65;0.65;;;;;;;15.46;36.35;92076.69;5075314;28;20039;-78
2023/04/16 09:00:24;;;;;;;0.95;0.85;;;;;;;15.48;36.43;92079.03;5101786;28;20059;-77
2023/04/16 09:02:50;;;;;;;0.77;0.70;;;;;;;15.22;35.70;92085.31;5065269;28;20358;-78
2023/04/16 09:05:16;;;;;;;0.80;0.77;;;;;;;15.17;37.94;92085.50;5104627;28;20393;-77
2023/04/16 09:07:46;;;;;;;0.68;0.68;;;;;;;15.19;35.43;92075.41;5096481;28;20478;-77
2023/04/16 09:10:22;;;;;;;1.48;0.93;;;;;;;15.25;37.16;92079.38;5084272;28;20032;-78
2023/04/16 09:12:47;;;;;;;0.40;0.40;;;;;;;15.39;34.89;92082.50;5098157;28;20044;-78
2023/04/16 09:15:19;;;;;;;1.58;0.70;;;;;;;15.27;36.58;92081.72;5064324;28;20106;-77
2023/04/16 09:17:44;;;;;;;0.60;0.60;;;;;;;15.78;39.34;92085.72;5078187;28;20047;-78
2023/04/16 09:20:18;;;;;;;1.15;0.90;;;;;;;15.76;38.47;92092.41;5097876;28;20115;-79
2023/04/16 09:22:49;;;;;;;1.63;0.90;;;;;;;16.50;36.65;92084.53;5079057;28;20040;-79
2023/04/16 09:25:15;;;;;;;0.60;0.60;;;;;;;16.01;33.78;92080.03;5082210;28;20509;-78
2023/04/16 09:27:41;;;;;;;0.68;0.68;;;;;;;15.62;33.18;92090.81;5099806;28;20028;-79
2023/04/16 09:30:24;;;;;;;0.60;0.60;;;;;;;15.50;32.80;92093.41;5076685;28;20062;-78
2023/04/16 09:32:51;;;;;;;0.77;0.70;;;;;;;15.61;32.78;92099.81;5095869;28;20054;-78
2023/04/16 09:35:18;;;;;;;1.08;0.77;;;;;;;15.59;34.56;92096.75;5096509;28;20035;-78
2023/04/16 09:37:54;;;;;;;1.23;0.63;;;;;;;15.59;33.05;92085.41;5079013;28;20424;-78
2023/04/16 09:40:25;;;;;;;0.50;0.50;;;;;;;16.01;31.69;92094.00;5064827;28;20043;-78
2023/04/16 09:42:52;;;;;;;0.70;0.70;;;;;;;16.02;31.67;92098.16;5096597;28;20449;-80
2023/04/16 09:45:17;;;;;;;0.65;0.50;;;;;;;16.11;31.75;92089.38;5078292;28;20056;-76
2023/04/16 09:47:45;;;;;;;0.60;0.60;;;;;;;16.19;31.10;92088.50;5045561;28;20032;-79
2023/04/16 09:50:18;;;;;;;0.63;0.63;;;;;;;16.00;30.79;92099.59;5096940;28;20040;-78
2023/04/16 09:52:47;;;;;;;0.50;0.50;;;;;;;15.39;30.44;92108.88;5061617;28;20032;-78
2023/04/16 09:55:13;;;;;;;0.75;0.68;;;;;;;15.26;32.51;92106.53;5097512;28;20021;-79
2023/04/16 09:57:39;;;;;;;0.40;0.40;;;;;;;15.03;31.05;92103.47;5097662;28;20051;-79
2023/04/16 10:00:10;;;;;;;0.85;0.80;;;;;;;14.98;32.27;92109.69;5097607;28;20032;-79
2023/04/16 10:02:40;;;;;;;0.60;0.60;;;;;;;15.12;33.68;92110.19;5098065;28;20390;-79
2023/04/16 10:05:06;;;;;;;0.70;0.70;;;;;;;15.32;31.78;92107.88;5078279;28;20077;-78
2023/04/16 10:07:36;;;;;;;0.50;0.50;;;;;;;15.79;32.64;92110.25;5063619;28;20031;-79
2023/04/16 10:10:04;;;;;;;0.80;0.80;;;;;;;15.96;31.99;92109.25;5098952;28;20040;-78
2023/04/16 10:12:31;;;;;;;0.63;0.63;;;;;;;15.75;31.71;92109.34;5077079;28;20025;-80
2023/04/16 10:14:57;;;;;;;0.65;0.65;;;;;;;15.16;32.45;92105.81;5083006;28;20040;-77
2023/04/16 10:17:24;;;;;;;0.60;0.60;;;;;;;15.08;32.32;92114.56;5087618;28;20395;-77
2023/04/16 10:19:51;;;;;;;0.60;0.60;;;;;;;15.43;33.14;92116.16;5056729;28;20540;-77
2023/04/16 10:22:16;;;;;;;0.70;0.70;;;;;;;15.51;34.22;92121.31;5060193;28;20050;-78
2023/04/16 10:24:45;;;;;;;0.75;0.70;;;;;;;15.32;33.76;92108.63;5083485;28;20040;-77
2023/04/16 10:27:11;;;;;;;0.63;0.60;;;;;;;15.19;34.07;92115.72;5088015;28;20064;-78
2023/04/16 10:29:37;;;;;;;0.75;0.75;;;;;;;15.20;33.76;92113.88;5059339;28;20067;-76
2023/04/16 10:32:05;;;;;;;0.60;0.60;;;;;;;15.24;32.97;92111.34;5051733;28;20450;-77
2023/04/16 10:34:31;;;;;;;0.85;0.63;;;;;;;15.11;32.57;92107.91;5068160;28;20132;-76
2023/04/16 10:36:56;;;;;;;0.60;0.60;;;;;;;15.55;30.84;92111.66;5052771;28;20040;-77
2023/04/16 10:39:24;;;;;;;0.55;0.55;;;;;;;16.04;30.45;92108.41;5052883;28;20040;-77
2023/04/16 10:42:04;;;;;;;1.35;0.70;;;;;;;16.06;32.14;92105.44;5067448;28;20032;-77
2023/04/16 10:44:31;;;;;;;0.57;0.57;;;;;;;16.49;31.00;92104.88;5056068;28;20736;-77
2023/04/16 10:46:58;;;;;;;0.40;0.40;;;;;;;16.62;32.08;92100.38;5081822;28;20028;-77
2023/04/16 10:49:26;;;;;;;0.60;0.60;;;;;;;16.82;32.60;92104.00;5073521;28;20177;-76
2023/04/16 10:51:52;;;;;;;0.80;0.68;;;;;;;16.50;31.25;92100.38;5083906;28;20111;-77
2023/04/16 10:54:22;;;;;;;0.80;0.70;;;;;;;16.37;31.88;92104.88;5064693;28;20380;-77
2023/04/16 10:56:49;;;;;;;0.50;0.50;;;;;;;16.29;30.60;92106.53;5055290;28;20063;-77
2023/04/16 10:59:21;;;;;;;0.80;0.50;;;;;;;16.70;30.36;92099.47;5090750;28;20032;-76
2023/04/16 11:01:52;;;;;;;0.70;0.63;;;;;;;16.98;29.78;92096.16;5092389;28;20032;-79
2023/04/16 11:04:18;;;;;;;0.70;0.70;;;;;;;16.40;30.99;92097.06;5064061;28;20498;-76
2023/04/16 11:07:02;;;;;;;0.93;0.75;;;;;;;16.47;31.43;92101.03;5084099;28;20036;-76
2023/04/16 11:09:52;;;;;;;0.70;0.43;;;;;;;16.62;30.21;92100.38;5066670;28;20031;-78
2023/04/16 11:12:23;;;;;;;0.60;0.60;;;;;;;16.48;31.17;92102.56;5090401;28;20017;-80
2023/04/16 11:14:54;;;;;;;0.40;0.40;;;;;;;16.26;30.19;92096.66;5090761;28;20044;-76
2023/04/16 11:17:20;;;;;;;0.50;0.50;;;;;;;16.36;29.22;92100.72;5057759;28;20040;-76
2023/04/16 11:19:46;;;;;;;0.30;0.30;;;;;;;15.85;30.21;92098.38;5088590;28;20106;-76
2023/04/16 11:22:16;;;;;;;0.52;0.52;;;;;;;15.69;29.44;92110.63;5098201;28;20043;-76
2023/04/16 11:24:45;;;;;;;0.40;0.40;;;;;;;15.57;29.55;92104.22;5086319;28;20020;-76
2023/04/16 11:27:14;;;;;;;0.57;0.57;;;;;;;15.81;29.53;92108.03;5085498;28;20572;-76
2023/04/16 11:29:41;;;;;;;0.50;0.50;;;;;;;16.09;29.87;92102.91;5086253;28;20486;-76
2023/04/16 11:32:07;;;;;;;0.50;0.50;;;;;;;16.30;28.92;92102.81;5085083;28;20027;-77
2023/04/16 11:34:33;;;;;;;0.50;0.50;;;;;;;16.45;29.88;92088.91;5066944;28;20389;-77
2023/04/16 11:36:58;;;;;;;0.50;0.50;;;;;;;16.98;30.60;92106.72;5083930;28;20055;-77
2023/04/16 11:39:24;;;;;;;0.40;0.40;;;;;;;16.20;28.67;92108.53;5068751;28;20040;-78